Portada
METAR-TAF:

METAR-TAF

Aeroports :

Sanford Regional Airport

Sanford, Maine, Estats Units d'Amèrica

latitud: 43-24N, longitud: 070-43W, altitud: 74 m

Observació

L'informe es va fer fa 59 minuts, a les 15:56 UTC
Vent 9 kt del Nord/Nord-Est
Temperatura 22°C
Humitat 69%
Pressió 1020 hPa
Visibilitat: 16.1 km
Cel ennuvolat a una alçada de 1900 ft
Cel cobert a una alçada de 3300 ft

METAR: KSFM 151556Z AUTO 03009KT 10SM BKN019 OVC033 22/16 A3013 RMK AO2 SLP206 T02170161

Hora: 12:55 (16:55 UTC)


TAF: manca

Observacions i pronòstics meteorològics de més de 4000 aeroports (METAR i TAF).

Les estacions disponibles són els punts grocs i vermells al mapa.

Posi el ratolí al punt desitjat per veure el nom de l'estació.

Feu clic per veure les observacions i els pronòstics meteorològics.

Per canviar el mapa: feu clic els botons verds amb una creu de color negre per apropar; al botó verd amb un guió per allunyar la imatge; o en les fletxes verdes per a mapes adjacents.


METAR-TAF: